METAR Data
IDs: Format: Raw Decoded Include TAF

Data at: 1858 UTC 16 Oct 2021

FAGG 161800Z 30008KT 9999 BKN030 OVC045 11/10 Q1020